Hammet, Louisiana
Current Conditions -  °F | °C
As of 4:15 PM on Sunday 25 Jan 2015 (Local Time) from KHEZ Reporting Station
Clear Clear  
Wind Chill: 64°   Ceiling: Unl
Heat Index: 64°   Visibility: 10mi
Dew Point: 39°   Wind: 14mph
Humidity: 40%   Direction: 270°W
Pressure: 29.87"   Gusts: 26mph
Location:  31.5712°N, 91.5148°W
Report Text: KHEZ 252215Z AUTO 27012G23KT 10SM CLR 18/04 A2987 RMK AO1
Loading
Personal Weather Stations






























Interactive Weather Map New forecast layout! Learn more

10-Day Weather Forecast

Advertisements
Track Severe Weather on mobile